sensor_id;sensor_type;location;lat;lon;timestamp;P1;durP1;ratioP1;P2;durP2;ratioP2
30020;SDS011;16861;52.294;7.760;2023-12-22T00:02:13;27.00;;;3.90;;
30020;SDS011;16861;52.294;7.760;2023-12-22T00:04:40;25.42;;;4.63;;
30020;SDS011;16861;52.294;7.760;2023-12-22T00:07:07;20.40;;;4.32;;
30020;SDS011;16861;52.294;7.760;2023-12-22T00:09:33;26.52;;;5.25;;
30020;SDS011;16861;52.294;7.760;2023-12-22T00:12:00;23.50;;;4.50;;
30020;SDS011;16861;52.294;7.760;2023-12-22T00:14:26;28.95;;;4.32;;
30020;SDS011;16861;52.294;7.760;2023-12-22T00:16:53;25.35;;;4.80;;
30020;SDS011;16861;52.294;7.760;2023-12-22T00:19:19;24.67;;;3.83;;
30020;SDS011;16861;52.294;7.760;2023-12-22T00:21:46;27.52;;;4.47;;
30020;SDS011;16861;52.294;7.760;2023-12-22T00:24:13;24.88;;;3.72;;
30020;SDS011;16861;52.294;7.760;2023-12-22T00:26:39;21.60;;;3.72;;
30020;SDS011;16861;52.294;7.760;2023-12-22T00:29:06;23.30;;;3.90;;
30020;SDS011;16861;52.294;7.760;2023-12-22T00:31:32;22.10;;;4.47;;
30020;SDS011;16861;52.294;7.760;2023-12-22T00:33:59;23.00;;;4.20;;
30020;SDS011;16861;52.294;7.760;2023-12-22T00:36:27;25.85;;;4.75;;
30020;SDS011;16861;52.294;7.760;2023-12-22T00:38:54;23.45;;;4.10;;
30020;SDS011;16861;52.294;7.760;2023-12-22T00:41:20;17.42;;;4.30;;
30020;SDS011;16861;52.294;7.760;2023-12-22T00:43:47;22.10;;;4.07;;
30020;SDS011;16861;52.294;7.760;2023-12-22T00:46:13;26.08;;;4.53;;
30020;SDS011;16861;52.294;7.760;2023-12-22T00:48:40;28.13;;;4.85;;
30020;SDS011;16861;52.294;7.760;2023-12-22T00:51:07;25.60;;;4.68;;
30020;SDS011;16861;52.294;7.760;2023-12-22T00:53:33;21.70;;;4.13;;
30020;SDS011;16861;52.294;7.760;2023-12-22T00:56:00;20.67;;;4.70;;
30020;SDS011;16861;52.294;7.760;2023-12-22T00:58:29;23.02;;;4.20;;
30020;SDS011;16861;52.294;7.760;2023-12-22T01:00:56;22.23;;;4.10;;
30020;SDS011;16861;52.294;7.760;2023-12-22T01:03:22;21.15;;;3.85;;
30020;SDS011;16861;52.294;7.760;2023-12-22T01:05:49;20.98;;;3.92;;
30020;SDS011;16861;52.294;7.760;2023-12-22T01:08:16;21.42;;;4.03;;
30020;SDS011;16861;52.294;7.760;2023-12-22T01:10:42;15.85;;;3.72;;
30020;SDS011;16861;52.294;7.760;2023-12-22T01:13:09;25.35;;;4.53;;
30020;SDS011;16861;52.294;7.760;2023-12-22T01:15:35;21.65;;;3.95;;
30020;SDS011;16861;52.294;7.760;2023-12-22T01:18:02;28.20;;;4.25;;
30020;SDS011;16861;52.294;7.760;2023-12-22T01:20:29;17.75;;;3.35;;
30020;SDS011;16861;52.294;7.760;2023-12-22T01:22:55;23.75;;;3.83;;
30020;SDS011;16861;52.294;7.760;2023-12-22T01:25:22;19.45;;;3.78;;
30020;SDS011;16861;52.294;7.760;2023-12-22T01:27:49;13.73;;;3.17;;
30020;SDS011;16861;52.294;7.760;2023-12-22T01:30:18;16.20;;;2.90;;
30020;SDS011;16861;52.294;7.760;2023-12-22T01:32:45;21.38;;;3.65;;
30020;SDS011;16861;52.294;7.760;2023-12-22T01:35:11;19.08;;;3.35;;
30020;SDS011;16861;52.294;7.760;2023-12-22T01:37:38;25.35;;;4.97;;
30020;SDS011;16861;52.294;7.760;2023-12-22T01:40:05;19.98;;;3.42;;
30020;SDS011;16861;52.294;7.760;2023-12-22T01:42:32;13.98;;;3.00;;
30020;SDS011;16861;52.294;7.760;2023-12-22T01:44:58;28.88;;;4.03;;
30020;SDS011;16861;52.294;7.760;2023-12-22T01:47:25;18.95;;;3.42;;
30020;SDS011;16861;52.294;7.760;2023-12-22T01:49:52;19.88;;;4.25;;
30020;SDS011;16861;52.294;7.760;2023-12-22T01:52:19;21.80;;;4.00;;
30020;SDS011;16861;52.294;7.760;2023-12-22T01:54:46;25.70;;;4.50;;
30020;SDS011;16861;52.294;7.760;2023-12-22T01:57:13;14.95;;;3.15;;
30020;SDS011;16861;52.294;7.760;2023-12-22T01:59:43;17.92;;;4.07;;
30020;SDS011;16861;52.294;7.760;2023-12-22T02:02:11;20.52;;;4.57;;
30020;SDS011;16861;52.294;7.760;2023-12-22T02:04:38;15.45;;;2.60;;
30020;SDS011;16861;52.294;7.760;2023-12-22T02:07:06;22.55;;;4.05;;
30020;SDS011;16861;52.294;7.760;2023-12-22T02:09:34;20.88;;;3.72;;
30020;SDS011;16861;52.294;7.760;2023-12-22T02:12:01;20.58;;;3.58;;
30020;SDS011;16861;52.294;7.760;2023-12-22T02:14:29;18.20;;;2.95;;
30020;SDS011;16861;52.294;7.760;2023-12-22T02:17:11;14.82;;;3.13;;
30020;SDS011;16861;52.294;7.760;2023-12-22T02:19:48;16.80;;;3.23;;
30020;SDS011;16861;52.294;7.760;2023-12-22T02:22:15;18.92;;;3.90;;
30020;SDS011;16861;52.294;7.760;2023-12-22T02:24:42;20.00;;;3.97;;
30020;SDS011;16861;52.294;7.760;2023-12-22T02:27:56;25.48;;;4.22;;
30020;SDS011;16861;52.294;7.760;2023-12-22T02:33:05;18.80;;;3.33;;
30020;SDS011;16861;52.294;7.760;2023-12-22T02:35:35;23.10;;;4.40;;
30020;SDS011;16861;52.294;7.760;2023-12-22T02:38:04;17.70;;;4.22;;
30020;SDS011;16861;52.294;7.760;2023-12-22T02:40:33;20.88;;;4.25;;
30020;SDS011;16861;52.294;7.760;2023-12-22T02:43:02;18.73;;;3.45;;
30020;SDS011;16861;52.294;7.760;2023-12-22T02:45:29;16.20;;;2.92;;
30020;SDS011;16861;52.294;7.760;2023-12-22T02:47:56;17.67;;;3.70;;
30020;SDS011;16861;52.294;7.760;2023-12-22T02:50:23;29.20;;;4.72;;
30020;SDS011;16861;52.294;7.760;2023-12-22T02:52:49;16.58;;;3.13;;
30020;SDS011;16861;52.294;7.760;2023-12-22T02:55:16;24.70;;;3.58;;
30020;SDS011;16861;52.294;7.760;2023-12-22T02:57:42;25.42;;;3.70;;
30020;SDS011;16861;52.294;7.760;2023-12-22T03:00:09;17.30;;;4.13;;
30020;SDS011;16861;52.294;7.760;2023-12-22T03:02:36;23.23;;;3.70;;
30020;SDS011;16861;52.294;7.760;2023-12-22T03:05:03;21.77;;;3.80;;
30020;SDS011;16861;52.294;7.760;2023-12-22T03:07:30;18.13;;;4.22;;
30020;SDS011;16861;52.294;7.760;2023-12-22T03:09:57;20.60;;;4.18;;
30020;SDS011;16861;52.294;7.760;2023-12-22T03:12:23;17.02;;;3.70;;
30020;SDS011;16861;52.294;7.760;2023-12-22T03:14:50;12.68;;;3.08;;
30020;SDS011;16861;52.294;7.760;2023-12-22T03:17:16;16.25;;;2.97;;
30020;SDS011;16861;52.294;7.760;2023-12-22T03:19:43;18.42;;;3.20;;
30020;SDS011;16861;52.294;7.760;2023-12-22T03:22:09;15.85;;;3.72;;
30020;SDS011;16861;52.294;7.760;2023-12-22T03:24:36;15.75;;;3.08;;
30020;SDS011;16861;52.294;7.760;2023-12-22T03:27:03;22.75;;;4.68;;
30020;SDS011;16861;52.294;7.760;2023-12-22T03:29:30;17.70;;;2.90;;
30020;SDS011;16861;52.294;7.760;2023-12-22T03:31:57;22.90;;;3.42;;
30020;SDS011;16861;52.294;7.760;2023-12-22T03:34:23;16.50;;;2.42;;
30020;SDS011;16861;52.294;7.760;2023-12-22T03:36:50;19.15;;;3.67;;
30020;SDS011;16861;52.294;7.760;2023-12-22T03:39:16;21.98;;;3.83;;
30020;SDS011;16861;52.294;7.760;2023-12-22T03:41:43;16.08;;;3.72;;
30020;SDS011;16861;52.294;7.760;2023-12-22T03:44:09;15.52;;;2.38;;
30020;SDS011;16861;52.294;7.760;2023-12-22T03:46:36;14.93;;;2.03;;
30020;SDS011;16861;52.294;7.760;2023-12-22T03:49:03;17.88;;;2.75;;
30020;SDS011;16861;52.294;7.760;2023-12-22T03:51:30;12.68;;;2.28;;
30020;SDS011;16861;52.294;7.760;2023-12-22T03:53:56;11.60;;;2.05;;
30020;SDS011;16861;52.294;7.760;2023-12-22T03:56:23;15.55;;;2.70;;
30020;SDS011;16861;52.294;7.760;2023-12-22T03:58:49;13.27;;;2.42;;
30020;SDS011;16861;52.294;7.760;2023-12-22T04:01:16;12.75;;;2.03;;
30020;SDS011;16861;52.294;7.760;2023-12-22T04:03:42;13.93;;;2.63;;
30020;SDS011;16861;52.294;7.760;2023-12-22T04:06:09;10.25;;;2.13;;
30020;SDS011;16861;52.294;7.760;2023-12-22T04:08:35;19.27;;;2.20;;
30020;SDS011;16861;52.294;7.760;2023-12-22T04:11:02;12.70;;;1.85;;
30020;SDS011;16861;52.294;7.760;2023-12-22T04:13:29;8.93;;;1.98;;
30020;SDS011;16861;52.294;7.760;2023-12-22T04:15:56;13.18;;;1.85;;
30020;SDS011;16861;52.294;7.760;2023-12-22T04:18:22;6.72;;;1.70;;
30020;SDS011;16861;52.294;7.760;2023-12-22T04:20:49;9.85;;;2.00;;
30020;SDS011;16861;52.294;7.760;2023-12-22T04:23:19;8.55;;;1.60;;
30020;SDS011;16861;52.294;7.760;2023-12-22T04:25:46;6.32;;;1.30;;
30020;SDS011;16861;52.294;7.760;2023-12-22T04:28:12;9.38;;;1.25;;
30020;SDS011;16861;52.294;7.760;2023-12-22T04:30:39;9.90;;;1.40;;
30020;SDS011;16861;52.294;7.760;2023-12-22T04:33:05;5.00;;;1.15;;
30020;SDS011;16861;52.294;7.760;2023-12-22T04:35:32;6.35;;;1.55;;
30020;SDS011;16861;52.294;7.760;2023-12-22T04:37:58;4.72;;;1.30;;
30020;SDS011;16861;52.294;7.760;2023-12-22T04:40:25;6.00;;;1.20;;
30020;SDS011;16861;52.294;7.760;2023-12-22T04:42:54;6.07;;;1.30;;
30020;SDS011;16861;52.294;7.760;2023-12-22T04:45:21;2.78;;;0.90;;
30020;SDS011;16861;52.294;7.760;2023-12-22T04:47:47;8.77;;;1.42;;
30020;SDS011;16861;52.294;7.760;2023-12-22T04:50:14;9.90;;;1.92;;
30020;SDS011;16861;52.294;7.760;2023-12-22T04:52:41;6.30;;;1.33;;
30020;SDS011;16861;52.294;7.760;2023-12-22T04:55:07;5.05;;;1.00;;
30020;SDS011;16861;52.294;7.760;2023-12-22T04:57:34;8.23;;;1.50;;
30020;SDS011;16861;52.294;7.760;2023-12-22T05:00:00;5.50;;;1.40;;
30020;SDS011;16861;52.294;7.760;2023-12-22T05:02:27;8.65;;;1.30;;
30020;SDS011;16861;52.294;7.760;2023-12-22T05:04:55;6.47;;;1.45;;
30020;SDS011;16861;52.294;7.760;2023-12-22T05:07:22;5.32;;;1.10;;
30020;SDS011;16861;52.294;7.760;2023-12-22T05:09:48;8.75;;;1.75;;
30020;SDS011;16861;52.294;7.760;2023-12-22T05:12:14;9.40;;;1.27;;
30020;SDS011;16861;52.294;7.760;2023-12-22T05:14:41;6.97;;;1.20;;
30020;SDS011;16861;52.294;7.760;2023-12-22T05:17:07;12.23;;;2.42;;
30020;SDS011;16861;52.294;7.760;2023-12-22T05:19:34;10.75;;;1.83;;
30020;SDS011;16861;52.294;7.760;2023-12-22T05:22:00;7.07;;;1.63;;
30020;SDS011;16861;52.294;7.760;2023-12-22T05:24:27;9.13;;;1.80;;
30020;SDS011;16861;52.294;7.760;2023-12-22T05:26:53;6.50;;;1.83;;
30020;SDS011;16861;52.294;7.760;2023-12-22T05:29:20;12.27;;;1.95;;
30020;SDS011;16861;52.294;7.760;2023-12-22T05:31:46;10.77;;;2.08;;
30020;SDS011;16861;52.294;7.760;2023-12-22T05:34:13;9.93;;;2.22;;
30020;SDS011;16861;52.294;7.760;2023-12-22T05:36:39;12.40;;;1.80;;
30020;SDS011;16861;52.294;7.760;2023-12-22T05:39:06;13.88;;;2.53;;
30020;SDS011;16861;52.294;7.760;2023-12-22T05:41:35;14.82;;;2.33;;
30020;SDS011;16861;52.294;7.760;2023-12-22T05:44:05;15.05;;;2.45;;
30020;SDS011;16861;52.294;7.760;2023-12-22T05:46:36;12.60;;;2.08;;
30020;SDS011;16861;52.294;7.760;2023-12-22T05:49:04;11.82;;;3.13;;
30020;SDS011;16861;52.294;7.760;2023-12-22T05:51:38;14.63;;;2.55;;
30020;SDS011;16861;52.294;7.760;2023-12-22T05:54:09;17.23;;;2.38;;
30020;SDS011;16861;52.294;7.760;2023-12-22T05:56:37;14.52;;;2.63;;
30020;SDS011;16861;52.294;7.760;2023-12-22T05:59:03;19.10;;;2.72;;
30020;SDS011;16861;52.294;7.760;2023-12-22T06:01:30;20.05;;;2.88;;
30020;SDS011;16861;52.294;7.760;2023-12-22T06:03:56;18.55;;;3.08;;
30020;SDS011;16861;52.294;7.760;2023-12-22T06:06:23;17.42;;;2.40;;
30020;SDS011;16861;52.294;7.760;2023-12-22T06:08:50;16.75;;;3.38;;
30020;SDS011;16861;52.294;7.760;2023-12-22T06:11:16;23.90;;;3.40;;
30020;SDS011;16861;52.294;7.760;2023-12-22T06:13:43;18.50;;;2.92;;
30020;SDS011;16861;52.294;7.760;2023-12-22T06:16:11;15.63;;;2.78;;
30020;SDS011;16861;52.294;7.760;2023-12-22T06:18:41;25.30;;;3.35;;
30020;SDS011;16861;52.294;7.760;2023-12-22T06:21:09;14.55;;;3.40;;
30020;SDS011;16861;52.294;7.760;2023-12-22T06:23:36;11.35;;;2.80;;
30020;SDS011;16861;52.294;7.760;2023-12-22T06:26:09;13.20;;;2.70;;
30020;SDS011;16861;52.294;7.760;2023-12-22T06:28:37;19.58;;;3.00;;
30020;SDS011;16861;52.294;7.760;2023-12-22T06:31:06;20.77;;;2.95;;
30020;SDS011;16861;52.294;7.760;2023-12-22T06:33:33;19.33;;;3.33;;
30020;SDS011;16861;52.294;7.760;2023-12-22T06:35:59;17.10;;;2.42;;
30020;SDS011;16861;52.294;7.760;2023-12-22T06:38:26;12.35;;;2.83;;
30020;SDS011;16861;52.294;7.760;2023-12-22T06:40:52;18.20;;;2.83;;
30020;SDS011;16861;52.294;7.760;2023-12-22T06:43:19;14.48;;;2.80;;
30020;SDS011;16861;52.294;7.760;2023-12-22T06:45:45;17.00;;;2.88;;
30020;SDS011;16861;52.294;7.760;2023-12-22T06:48:12;22.70;;;2.80;;
30020;SDS011;16861;52.294;7.760;2023-12-22T06:50:39;22.10;;;3.22;;
30020;SDS011;16861;52.294;7.760;2023-12-22T06:53:06;16.00;;;3.63;;
30020;SDS011;16861;52.294;7.760;2023-12-22T06:55:47;17.88;;;3.47;;
30020;SDS011;16861;52.294;7.760;2023-12-22T06:58:13;18.50;;;3.20;;
30020;SDS011;16861;52.294;7.760;2023-12-22T07:00:40;19.73;;;3.28;;
30020;SDS011;16861;52.294;7.760;2023-12-22T07:03:07;18.60;;;3.15;;
30020;SDS011;16861;52.294;7.760;2023-12-22T07:05:34;17.70;;;3.53;;
30020;SDS011;16861;52.294;7.760;2023-12-22T07:08:03;18.67;;;3.03;;
30020;SDS011;16861;52.294;7.760;2023-12-22T07:10:30;17.95;;;3.50;;
30020;SDS011;16861;52.294;7.760;2023-12-22T07:12:57;17.73;;;3.42;;
30020;SDS011;16861;52.294;7.760;2023-12-22T07:15:24;17.00;;;3.05;;
30020;SDS011;16861;52.294;7.760;2023-12-22T07:17:50;16.95;;;2.95;;
30020;SDS011;16861;52.294;7.760;2023-12-22T07:20:18;17.02;;;3.28;;
30020;SDS011;16861;52.294;7.760;2023-12-22T07:22:44;18.67;;;2.85;;
30020;SDS011;16861;52.294;7.760;2023-12-22T07:25:12;11.10;;;2.70;;
30020;SDS011;16861;52.294;7.760;2023-12-22T07:27:40;18.02;;;2.80;;
30020;SDS011;16861;52.294;7.760;2023-12-22T07:30:07;14.40;;;2.65;;
30020;SDS011;16861;52.294;7.760;2023-12-22T07:32:34;13.82;;;2.72;;
30020;SDS011;16861;52.294;7.760;2023-12-22T07:35:00;15.65;;;3.05;;
30020;SDS011;16861;52.294;7.760;2023-12-22T07:37:27;18.95;;;3.70;;
30020;SDS011;16861;52.294;7.760;2023-12-22T07:39:54;19.70;;;2.47;;
30020;SDS011;16861;52.294;7.760;2023-12-22T07:42:21;14.48;;;3.22;;
30020;SDS011;16861;52.294;7.760;2023-12-22T07:44:48;15.68;;;2.92;;
30020;SDS011;16861;52.294;7.760;2023-12-22T07:47:14;21.52;;;3.10;;
30020;SDS011;16861;52.294;7.760;2023-12-22T07:49:41;12.32;;;2.83;;
30020;SDS011;16861;52.294;7.760;2023-12-22T07:52:09;23.73;;;3.70;;
30020;SDS011;16861;52.294;7.760;2023-12-22T07:54:36;17.25;;;3.10;;
30020;SDS011;16861;52.294;7.760;2023-12-22T07:57:04;21.77;;;3.55;;
30020;SDS011;16861;52.294;7.760;2023-12-22T07:59:31;16.25;;;3.80;;
30020;SDS011;16861;52.294;7.760;2023-12-22T08:01:58;26.88;;;3.85;;
30020;SDS011;16861;52.294;7.760;2023-12-22T08:04:25;19.70;;;3.28;;
30020;SDS011;16861;52.294;7.760;2023-12-22T08:06:52;20.38;;;3.58;;
30020;SDS011;16861;52.294;7.760;2023-12-22T08:09:19;18.02;;;3.55;;
30020;SDS011;16861;52.294;7.760;2023-12-22T08:11:46;23.58;;;3.55;;
30020;SDS011;16861;52.294;7.760;2023-12-22T08:14:13;20.90;;;3.83;;
30020;SDS011;16861;52.294;7.760;2023-12-22T08:16:40;15.50;;;3.63;;
30020;SDS011;16861;52.294;7.760;2023-12-22T08:19:07;17.05;;;3.22;;
30020;SDS011;16861;52.294;7.760;2023-12-22T08:21:34;16.08;;;3.15;;
30020;SDS011;16861;52.294;7.760;2023-12-22T08:24:11;15.48;;;3.60;;
30020;SDS011;16861;52.294;7.760;2023-12-22T08:26:48;17.40;;;3.13;;
30020;SDS011;16861;52.294;7.760;2023-12-22T08:29:15;18.45;;;3.67;;
30020;SDS011;16861;52.294;7.760;2023-12-22T08:31:46;22.90;;;4.20;;
30020;SDS011;16861;52.294;7.760;2023-12-22T08:34:13;18.63;;;4.07;;
30020;SDS011;16861;52.294;7.760;2023-12-22T08:36:39;18.00;;;2.85;;
30020;SDS011;16861;52.294;7.760;2023-12-22T08:39:06;20.00;;;3.60;;
30020;SDS011;16861;52.294;7.760;2023-12-22T08:41:34;17.00;;;2.88;;
30020;SDS011;16861;52.294;7.760;2023-12-22T08:44:04;19.23;;;3.30;;
30020;SDS011;16861;52.294;7.760;2023-12-22T08:46:31;19.40;;;4.05;;
30020;SDS011;16861;52.294;7.760;2023-12-22T08:48:58;15.13;;;3.28;;
30020;SDS011;16861;52.294;7.760;2023-12-22T08:51:26;12.07;;;2.92;;
30020;SDS011;16861;52.294;7.760;2023-12-22T08:53:53;20.92;;;3.05;;
30020;SDS011;16861;52.294;7.760;2023-12-22T08:56:24;13.35;;;2.55;;
30020;SDS011;16861;52.294;7.760;2023-12-22T08:58:51;15.57;;;2.88;;
30020;SDS011;16861;52.294;7.760;2023-12-22T09:01:19;16.25;;;3.03;;
30020;SDS011;16861;52.294;7.760;2023-12-22T09:03:46;12.18;;;2.22;;
30020;SDS011;16861;52.294;7.760;2023-12-22T09:08:42;15.00;;;2.72;;
30020;SDS011;16861;52.294;7.760;2023-12-22T09:11:13;11.55;;;2.83;;
30020;SDS011;16861;52.294;7.760;2023-12-22T09:13:41;14.23;;;2.30;;
30020;SDS011;16861;52.294;7.760;2023-12-22T09:16:09;11.38;;;2.60;;
30020;SDS011;16861;52.294;7.760;2023-12-22T09:18:36;10.75;;;2.28;;
30020;SDS011;16861;52.294;7.760;2023-12-22T09:21:03;8.45;;;2.13;;
30020;SDS011;16861;52.294;7.760;2023-12-22T09:23:29;8.93;;;2.45;;
30020;SDS011;16861;52.294;7.760;2023-12-22T09:25:58;13.63;;;2.30;;
30020;SDS011;16861;52.294;7.760;2023-12-22T09:28:25;13.48;;;2.45;;
30020;SDS011;16861;52.294;7.760;2023-12-22T09:30:51;8.20;;;1.88;;
30020;SDS011;16861;52.294;7.760;2023-12-22T09:33:18;8.38;;;2.10;;
30020;SDS011;16861;52.294;7.760;2023-12-22T09:35:45;9.60;;;1.88;;
30020;SDS011;16861;52.294;7.760;2023-12-22T09:38:12;15.93;;;2.50;;
30020;SDS011;16861;52.294;7.760;2023-12-22T09:40:39;7.00;;;1.80;;
30020;SDS011;16861;52.294;7.760;2023-12-22T09:43:06;16.17;;;2.72;;
30020;SDS011;16861;52.294;7.760;2023-12-22T09:45:33;8.00;;;1.83;;
30020;SDS011;16861;52.294;7.760;2023-12-22T09:48:00;10.85;;;2.15;;
30020;SDS011;16861;52.294;7.760;2023-12-22T09:50:30;9.45;;;2.08;;
30020;SDS011;16861;52.294;7.760;2023-12-22T09:52:57;13.30;;;2.40;;
30020;SDS011;16861;52.294;7.760;2023-12-22T09:55:23;8.60;;;1.90;;
30020;SDS011;16861;52.294;7.760;2023-12-22T09:57:51;8.93;;;2.00;;
30020;SDS011;16861;52.294;7.760;2023-12-22T10:00:18;6.13;;;1.70;;
30020;SDS011;16861;52.294;7.760;2023-12-22T10:02:46;6.05;;;1.67;;
30020;SDS011;16861;52.294;7.760;2023-12-22T10:05:13;8.23;;;1.60;;
30020;SDS011;16861;52.294;7.760;2023-12-22T10:07:41;5.30;;;1.40;;
30020;SDS011;16861;52.294;7.760;2023-12-22T10:10:11;6.95;;;1.52;;
30020;SDS011;16861;52.294;7.760;2023-12-22T10:12:38;8.25;;;1.25;;
30020;SDS011;16861;52.294;7.760;2023-12-22T10:15:06;6.97;;;1.25;;
30020;SDS011;16861;52.294;7.760;2023-12-22T10:17:35;8.20;;;1.38;;
30020;SDS011;16861;52.294;7.760;2023-12-22T10:20:02;10.93;;;1.60;;
30020;SDS011;16861;52.294;7.760;2023-12-22T10:22:30;6.93;;;1.52;;
30020;SDS011;16861;52.294;7.760;2023-12-22T10:24:56;7.90;;;1.80;;
30020;SDS011;16861;52.294;7.760;2023-12-22T10:27:23;9.30;;;1.40;;
30020;SDS011;16861;52.294;7.760;2023-12-22T10:29:50;8.20;;;2.15;;
30020;SDS011;16861;52.294;7.760;2023-12-22T10:32:20;8.40;;;1.45;;
30020;SDS011;16861;52.294;7.760;2023-12-22T10:34:48;9.95;;;1.70;;
30020;SDS011;16861;52.294;7.760;2023-12-22T10:37:17;6.60;;;1.42;;
30020;SDS011;16861;52.294;7.760;2023-12-22T10:39:51;9.25;;;1.63;;
30020;SDS011;16861;52.294;7.760;2023-12-22T10:42:21;6.75;;;1.50;;
30020;SDS011;16861;52.294;7.760;2023-12-22T10:44:48;8.55;;;1.60;;
30020;SDS011;16861;52.294;7.760;2023-12-22T10:47:18;11.57;;;1.80;;
30020;SDS011;16861;52.294;7.760;2023-12-22T10:49:47;11.57;;;2.00;;
30020;SDS011;16861;52.294;7.760;2023-12-22T10:52:18;8.07;;;1.52;;
30020;SDS011;16861;52.294;7.760;2023-12-22T10:54:50;10.38;;;1.90;;
30020;SDS011;16861;52.294;7.760;2023-12-22T10:57:17;6.07;;;1.42;;
30020;SDS011;16861;52.294;7.760;2023-12-22T10:59:46;12.82;;;1.50;;
30020;SDS011;16861;52.294;7.760;2023-12-22T11:02:23;4.60;;;1.30;;
30020;SDS011;16861;52.294;7.760;2023-12-22T11:04:58;9.38;;;1.80;;
30020;SDS011;16861;52.294;7.760;2023-12-22T11:07:28;8.02;;;1.27;;
30020;SDS011;16861;52.294;7.760;2023-12-22T11:10:00;5.32;;;1.40;;
30020;SDS011;16861;52.294;7.760;2023-12-22T11:12:30;6.40;;;1.55;;
30020;SDS011;16861;52.294;7.760;2023-12-22T11:15:05;6.40;;;1.52;;
30020;SDS011;16861;52.294;7.760;2023-12-22T11:17:33;7.47;;;1.25;;
30020;SDS011;16861;52.294;7.760;2023-12-22T11:20:02;5.25;;;1.50;;
30020;SDS011;16861;52.294;7.760;2023-12-22T11:22:30;6.68;;;1.30;;
30020;SDS011;16861;52.294;7.760;2023-12-22T11:24:58;6.68;;;1.38;;
30020;SDS011;16861;52.294;7.760;2023-12-22T11:27:26;6.75;;;1.58;;
30020;SDS011;16861;52.294;7.760;2023-12-22T11:29:54;6.68;;;1.33;;
30020;SDS011;16861;52.294;7.760;2023-12-22T11:32:21;4.75;;;1.25;;
30020;SDS011;16861;52.294;7.760;2023-12-22T11:34:48;5.80;;;1.40;;
30020;SDS011;16861;52.294;7.760;2023-12-22T11:37:15;4.13;;;0.70;;
30020;SDS011;16861;52.294;7.760;2023-12-22T11:39:43;8.18;;;1.20;;
30020;SDS011;16861;52.294;7.760;2023-12-22T11:42:18;4.95;;;0.98;;
30020;SDS011;16861;52.294;7.760;2023-12-22T11:44:54;5.45;;;1.00;;
30020;SDS011;16861;52.294;7.760;2023-12-22T11:47:24;4.93;;;1.40;;
30020;SDS011;16861;52.294;7.760;2023-12-22T11:49:52;3.67;;;1.10;;
30020;SDS011;16861;52.294;7.760;2023-12-22T11:52:24;5.53;;;1.13;;
30020;SDS011;16861;52.294;7.760;2023-12-22T11:54:54;3.83;;;0.90;;
30020;SDS011;16861;52.294;7.760;2023-12-22T11:57:36;3.35;;;1.13;;
30020;SDS011;16861;52.294;7.760;2023-12-22T12:00:08;5.68;;;1.00;;
30020;SDS011;16861;52.294;7.760;2023-12-22T12:02:37;4.28;;;1.08;;
30020;SDS011;16861;52.294;7.760;2023-12-22T12:05:06;2.90;;;1.02;;
30020;SDS011;16861;52.294;7.760;2023-12-22T12:10:12;1.83;;;0.70;;
30020;SDS011;16861;52.294;7.760;2023-12-22T12:12:40;1.92;;;0.80;;
30020;SDS011;16861;52.294;7.760;2023-12-22T12:15:12;2.33;;;0.77;;
30020;SDS011;16861;52.294;7.760;2023-12-22T12:17:43;1.83;;;0.60;;
30020;SDS011;16861;52.294;7.760;2023-12-22T12:20:10;3.28;;;0.77;;
30020;SDS011;16861;52.294;7.760;2023-12-22T12:22:38;4.43;;;1.10;;
30020;SDS011;16861;52.294;7.760;2023-12-22T12:25:09;2.80;;;0.65;;
30020;SDS011;16861;52.294;7.760;2023-12-22T12:28:07;2.53;;;0.80;;
30020;SDS011;16861;52.294;7.760;2023-12-22T12:30:35;2.30;;;1.00;;
30020;SDS011;16861;52.294;7.760;2023-12-22T12:33:07;1.73;;;0.50;;
30020;SDS011;16861;52.294;7.760;2023-12-22T12:35:36;2.75;;;0.80;;
30020;SDS011;16861;52.294;7.760;2023-12-22T12:38:09;1.25;;;0.60;;
30020;SDS011;16861;52.294;7.760;2023-12-22T12:40:37;1.38;;;0.50;;
30020;SDS011;16861;52.294;7.760;2023-12-22T12:43:06;2.63;;;0.50;;
30020;SDS011;16861;52.294;7.760;2023-12-22T12:45:33;2.33;;;0.50;;
30020;SDS011;16861;52.294;7.760;2023-12-22T12:48:03;0.75;;;0.40;;
30020;SDS011;16861;52.294;7.760;2023-12-22T12:53:00;0.73;;;0.38;;
30020;SDS011;16861;52.294;7.760;2023-12-22T12:55:27;3.10;;;0.70;;
30020;SDS011;16861;52.294;7.760;2023-12-22T12:57:55;1.40;;;0.50;;
30020;SDS011;16861;52.294;7.760;2023-12-22T13:00:29;0.95;;;0.40;;
30020;SDS011;16861;52.294;7.760;2023-12-22T13:03:02;1.48;;;0.50;;
30020;SDS011;16861;52.294;7.760;2023-12-22T13:05:31;1.88;;;0.32;;
30020;SDS011;16861;52.294;7.760;2023-12-22T13:08:07;1.23;;;0.40;;
30020;SDS011;16861;52.294;7.760;2023-12-22T13:10:37;0.98;;;0.40;;
30020;SDS011;16861;52.294;7.760;2023-12-22T13:13:05;2.10;;;0.57;;
30020;SDS011;16861;52.294;7.760;2023-12-22T13:15:32;1.50;;;0.60;;
30020;SDS011;16861;52.294;7.760;2023-12-22T13:17:59;1.30;;;0.50;;
30020;SDS011;16861;52.294;7.760;2023-12-22T13:20:26;2.00;;;0.40;;
30020;SDS011;16861;52.294;7.760;2023-12-22T13:22:54;0.82;;;0.50;;
30020;SDS011;16861;52.294;7.760;2023-12-22T13:25:21;0.82;;;0.50;;
30020;SDS011;16861;52.294;7.760;2023-12-22T13:27:50;1.92;;;0.80;;
30020;SDS011;16861;52.294;7.760;2023-12-22T13:30:37;1.88;;;0.55;;
30020;SDS011;16861;52.294;7.760;2023-12-22T13:33:08;1.35;;;0.60;;
30020;SDS011;16861;52.294;7.760;2023-12-22T13:35:35;1.63;;;0.60;;
30020;SDS011;16861;52.294;7.760;2023-12-22T13:38:07;2.22;;;0.60;;
30020;SDS011;16861;52.294;7.760;2023-12-22T13:40:36;1.60;;;0.57;;
30020;SDS011;16861;52.294;7.760;2023-12-22T13:43:05;2.92;;;0.47;;
30020;SDS011;16861;52.294;7.760;2023-12-22T13:45:34;1.15;;;0.50;;
30020;SDS011;16861;52.294;7.760;2023-12-22T13:48:00;1.58;;;0.70;;
30020;SDS011;16861;52.294;7.760;2023-12-22T13:50:27;2.10;;;0.50;;
30020;SDS011;16861;52.294;7.760;2023-12-22T13:52:54;3.35;;;0.52;;
30020;SDS011;16861;52.294;7.760;2023-12-22T13:55:21;1.20;;;0.60;;
30020;SDS011;16861;52.294;7.760;2023-12-22T13:57:58;2.08;;;0.60;;
30020;SDS011;16861;52.294;7.760;2023-12-22T14:00:29;1.40;;;0.60;;
30020;SDS011;16861;52.294;7.760;2023-12-22T14:02:57;3.33;;;0.80;;
30020;SDS011;16861;52.294;7.760;2023-12-22T14:05:24;3.03;;;0.63;;
30020;SDS011;16861;52.294;7.760;2023-12-22T14:07:53;1.42;;;0.68;;
30020;SDS011;16861;52.294;7.760;2023-12-22T14:10:20;1.70;;;0.80;;
30020;SDS011;16861;52.294;7.760;2023-12-22T14:12:47;1.40;;;0.65;;
30020;SDS011;16861;52.294;7.760;2023-12-22T14:15:14;4.18;;;0.63;;
30020;SDS011;16861;52.294;7.760;2023-12-22T14:17:40;3.00;;;0.70;;
30020;SDS011;16861;52.294;7.760;2023-12-22T14:20:10;1.77;;;0.60;;
30020;SDS011;16861;52.294;7.760;2023-12-22T14:22:37;2.05;;;0.50;;
30020;SDS011;16861;52.294;7.760;2023-12-22T14:25:04;2.42;;;0.68;;
30020;SDS011;16861;52.294;7.760;2023-12-22T14:27:32;0.50;;;0.40;;
30020;SDS011;16861;52.294;7.760;2023-12-22T14:29:58;1.83;;;0.70;;
30020;SDS011;16861;52.294;7.760;2023-12-22T14:32:25;3.22;;;0.70;;
30020;SDS011;16861;52.294;7.760;2023-12-22T14:34:52;1.67;;;0.90;;
30020;SDS011;16861;52.294;7.760;2023-12-22T14:37:18;1.52;;;0.65;;
30020;SDS011;16861;52.294;7.760;2023-12-22T14:39:49;2.70;;;0.80;;
30020;SDS011;16861;52.294;7.760;2023-12-22T14:42:16;4.25;;;0.75;;
30020;SDS011;16861;52.294;7.760;2023-12-22T14:44:42;1.20;;;0.65;;
30020;SDS011;16861;52.294;7.760;2023-12-22T14:47:10;3.70;;;0.70;;
30020;SDS011;16861;52.294;7.760;2023-12-22T14:49:39;3.88;;;0.73;;
30020;SDS011;16861;52.294;7.760;2023-12-22T14:52:06;4.57;;;0.90;;
30020;SDS011;16861;52.294;7.760;2023-12-22T14:54:33;1.60;;;0.57;;
30020;SDS011;16861;52.294;7.760;2023-12-22T14:56:59;2.78;;;0.88;;